SWA2224 KBNA-KDAL
Flight info
| Callsign | SWA2224 |
|---|---|
| Flight time | 1h 36m |
| Altitude | 34000 |
| Route | DANLS4 TPEEE LIT DIRRK HIBIL3 |
| Aircraft | B738/M-SDE2E3FGHIRWXY/LB1 |
Departure
| Time | 2026-05-04 00:31 |
|---|---|
| Airport | Nashville International Airport (KBNA) |
Arrival
| Time | 2026-05-04 02:07 |
|---|---|
| Airport | Dallas Love Field (KDAL) |
| Time | Latitude | Longitude | Altitude | Speed | Heading |
|---|---|---|---|---|---|
| 2026-05-04 00:03 | 36.13380 | -86.67001 | 566 ft | 0 kts | 97° |
| 2026-05-04 00:21 | 36.13382 | -86.67019 | 574 ft | 2 kts | 97° |
| 2026-05-04 00:21 | 36.13383 | -86.67037 | 570 ft | 2 kts | 99° |
| 2026-05-04 00:22 | 36.13389 | -86.67053 | 575 ft | 2 kts | 142° |
| 2026-05-04 00:22 | 36.13402 | -86.67062 | 572 ft | 3 kts | 152° |
| 2026-05-04 00:22 | 36.13418 | -86.67071 | 570 ft | 0 kts | 175° |
| 2026-05-04 00:26 | 36.13407 | -86.67078 | 570 ft | 4 kts | 212° |
| 2026-05-04 00:26 | 36.13385 | -86.67128 | 575 ft | 9 kts | 253° |
| 2026-05-04 00:26 | 36.13396 | -86.67207 | 575 ft | 10 kts | 289° |
| 2026-05-04 00:26 | 36.13393 | -86.67299 | 572 ft | 12 kts | 240° |
| 2026-05-04 00:27 | 36.13318 | -86.67342 | 572 ft | 14 kts | 192° |
| 2026-05-04 00:27 | 36.13182 | -86.67368 | 561 ft | 27 kts | 184° |
| 2026-05-04 00:27 | 36.12985 | -86.67331 | 574 ft | 29 kts | 133° |
| 2026-05-04 00:27 | 36.12854 | -86.67215 | 580 ft | 10 kts | 212° |
| 2026-05-04 00:28 | 36.12812 | -86.67301 | 581 ft | 15 kts | 235° |
| 2026-05-04 00:28 | 36.12729 | -86.67415 | 581 ft | 19 kts | 218° |
| 2026-05-04 00:28 | 36.12599 | -86.67511 | 583 ft | 25 kts | 209° |
| 2026-05-04 00:28 | 36.12457 | -86.67642 | 587 ft | 26 kts | 204° |
| 2026-05-04 00:29 | 36.12359 | -86.67774 | 583 ft | 18 kts | 260° |
| 2026-05-04 00:29 | 36.12370 | -86.67836 | 582 ft | 0 kts | 293° |
| 2026-05-04 00:29 | 36.12376 | -86.67854 | 582 ft | 7 kts | 293° |
| 2026-05-04 00:30 | 36.12387 | -86.67945 | 581 ft | 12 kts | 249° |
| 2026-05-04 00:30 | 36.12280 | -86.68019 | 580 ft | 43 kts | 197° |
| 2026-05-04 00:30 | 36.11715 | -86.68246 | 582 ft | 125 kts | 197° |
| 2026-05-04 00:30 | 36.10696 | -86.68671 | 719 ft | 180 kts | 198° |
| 2026-05-04 00:31 | 36.09476 | -86.69113 | 1576 ft | 186 kts | 197° |
| 2026-05-04 00:31 | 36.08364 | -86.69819 | 2541 ft | 178 kts | 229° |
| 2026-05-04 00:31 | 36.07847 | -86.71291 | 2947 ft | 200 kts | 255° |
| 2026-05-04 00:31 | 36.07467 | -86.73053 | 3229 ft | 221 kts | 252° |
| 2026-05-04 00:32 | 36.06993 | -86.74946 | 3569 ft | 242 kts | 251° |
| 2026-05-04 00:32 | 36.06638 | -86.77029 | 4157 ft | 254 kts | 270° |
| 2026-05-04 00:32 | 36.06903 | -86.79158 | 5242 ft | 251 kts | 282° |
| 2026-05-04 00:32 | 36.07349 | -86.81275 | 5774 ft | 256 kts | 284° |
| 2026-05-04 00:33 | 36.07815 | -86.83407 | 6043 ft | 260 kts | 284° |
| 2026-05-04 00:33 | 36.08729 | -86.87752 | 6148 ft | 262 kts | 283° |
| 2026-05-04 00:33 | 36.08981 | -86.89967 | 6813 ft | 265 kts | 274° |
| 2026-05-04 00:34 | 36.09059 | -86.92241 | 7737 ft | 265 kts | 272° |
| 2026-05-04 00:34 | 36.09110 | -86.94528 | 8597 ft | 268 kts | 273° |
| 2026-05-04 00:34 | 36.09163 | -86.96842 | 9416 ft | 272 kts | 274° |
| 2026-05-04 00:34 | 36.09225 | -86.99195 | 10205 ft | 276 kts | 274° |
| 2026-05-04 00:35 | 36.09298 | -87.01648 | 10556 ft | 297 kts | 274° |
| 2026-05-04 00:35 | 36.09382 | -87.04303 | 10756 ft | 321 kts | 274° |
| 2026-05-04 00:35 | 36.09474 | -87.07143 | 11081 ft | 338 kts | 274° |
| 2026-05-04 00:35 | 36.09567 | -87.10069 | 11760 ft | 342 kts | 274° |
| 2026-05-04 00:36 | 36.09662 | -87.13022 | 12551 ft | 345 kts | 275° |
| 2026-05-04 00:36 | 36.09759 | -87.15997 | 13324 ft | 348 kts | 275° |
| 2026-05-04 00:36 | 36.09856 | -87.19003 | 14052 ft | 351 kts | 275° |
| 2026-05-04 00:36 | 36.09890 | -87.22038 | 14716 ft | 356 kts | 268° |
| 2026-05-04 00:37 | 36.09402 | -87.25069 | 15403 ft | 361 kts | 259° |
| 2026-05-04 00:37 | 36.08779 | -87.28090 | 16096 ft | 364 kts | 258° |
| 2026-05-04 00:37 | 36.08137 | -87.31134 | 16751 ft | 367 kts | 258° |
| 2026-05-04 00:37 | 36.07491 | -87.34205 | 17403 ft | 370 kts | 258° |
| 2026-05-04 00:38 | 36.06848 | -87.37298 | 18072 ft | 372 kts | 258° |
| 2026-05-04 00:38 | 36.06209 | -87.40395 | 18761 ft | 373 kts | 259° |
| 2026-05-04 00:38 | 36.05569 | -87.43529 | 19253 ft | 378 kts | 259° |
| 2026-05-04 00:38 | 36.04925 | -87.46696 | 19808 ft | 381 kts | 259° |
| 2026-05-04 00:39 | 36.04285 | -87.49841 | 20376 ft | 382 kts | 259° |
| 2026-05-04 00:39 | 36.03636 | -87.53036 | 20947 ft | 385 kts | 259° |
| 2026-05-04 00:39 | 36.02982 | -87.56252 | 21477 ft | 387 kts | 259° |
| 2026-05-04 00:39 | 36.02322 | -87.59490 | 22002 ft | 390 kts | 259° |
| 2026-05-04 00:40 | 36.01657 | -87.62751 | 22526 ft | 392 kts | 259° |
| 2026-05-04 00:40 | 36.00989 | -87.66022 | 23045 ft | 394 kts | 259° |
| 2026-05-04 00:40 | 36.00314 | -87.69321 | 23553 ft | 397 kts | 259° |
| 2026-05-04 00:40 | 35.99636 | -87.72634 | 23974 ft | 399 kts | 259° |
| 2026-05-04 00:41 | 35.98953 | -87.75961 | 24389 ft | 401 kts | 259° |
| 2026-05-04 00:41 | 35.98274 | -87.79266 | 24807 ft | 402 kts | 259° |
| 2026-05-04 00:41 | 35.97583 | -87.82621 | 25220 ft | 404 kts | 259° |
| 2026-05-04 00:41 | 35.96889 | -87.85988 | 25602 ft | 406 kts | 260° |
| 2026-05-04 00:42 | 35.96188 | -87.89386 | 25983 ft | 408 kts | 260° |
| 2026-05-04 00:42 | 35.95485 | -87.92784 | 26366 ft | 410 kts | 260° |
| 2026-05-04 00:42 | 35.94778 | -87.96201 | 26730 ft | 412 kts | 260° |
| 2026-05-04 00:42 | 35.94066 | -87.99630 | 27082 ft | 414 kts | 260° |
| 2026-05-04 00:43 | 35.93351 | -88.03074 | 27444 ft | 415 kts | 260° |
| 2026-05-04 00:43 | 35.92632 | -88.06530 | 27788 ft | 417 kts | 260° |
| 2026-05-04 00:43 | 35.91908 | -88.10006 | 28118 ft | 419 kts | 260° |
| 2026-05-04 00:43 | 35.91178 | -88.13501 | 28438 ft | 421 kts | 260° |
| 2026-05-04 00:44 | 35.90447 | -88.17001 | 28761 ft | 423 kts | 260° |
| 2026-05-04 00:44 | 35.89709 | -88.20528 | 29080 ft | 424 kts | 260° |
| 2026-05-04 00:44 | 35.88970 | -88.24054 | 29373 ft | 426 kts | 260° |
| 2026-05-04 00:44 | 35.88265 | -88.27612 | 29682 ft | 425 kts | 264° |
| 2026-05-04 00:45 | 35.87912 | -88.31204 | 30127 ft | 420 kts | 269° |
| 2026-05-04 00:45 | 35.87691 | -88.34782 | 30549 ft | 416 kts | 270° |
| 2026-05-04 00:45 | 35.87498 | -88.38284 | 30916 ft | 415 kts | 270° |
| 2026-05-04 00:45 | 35.87298 | -88.41827 | 31260 ft | 414 kts | 270° |
| 2026-05-04 00:46 | 35.87080 | -88.45375 | 31587 ft | 413 kts | 270° |
| 2026-05-04 00:46 | 35.86850 | -88.48900 | 31950 ft | 412 kts | 270° |
| 2026-05-04 00:46 | 35.86610 | -88.52412 | 32315 ft | 410 kts | 270° |
| 2026-05-04 00:46 | 35.86365 | -88.55913 | 32646 ft | 409 kts | 270° |
| 2026-05-04 00:47 | 35.86118 | -88.59410 | 32987 ft | 408 kts | 270° |
| 2026-05-04 00:47 | 35.85871 | -88.62889 | 33343 ft | 407 kts | 270° |
| 2026-05-04 00:47 | 35.85625 | -88.66357 | 33678 ft | 405 kts | 270° |
| 2026-05-04 00:47 | 35.85378 | -88.69813 | 33998 ft | 404 kts | 270° |
| 2026-05-04 00:48 | 35.85132 | -88.73267 | 34055 ft | 406 kts | 270° |
| 2026-05-04 00:48 | 35.84633 | -88.80200 | 34053 ft | 405 kts | 270° |
| 2026-05-04 00:49 | 35.83761 | -88.87013 | 34065 ft | 413 kts | 257° |
| 2026-05-04 00:49 | 35.81758 | -88.93650 | 34080 ft | 412 kts | 256° |
| 2026-05-04 00:50 | 35.79745 | -89.00262 | 34076 ft | 412 kts | 256° |
| 2026-05-04 00:50 | 35.77756 | -89.06880 | 34074 ft | 412 kts | 256° |
| 2026-05-04 00:51 | 35.75778 | -89.13503 | 34071 ft | 412 kts | 256° |
| 2026-05-04 00:51 | 35.73796 | -89.20143 | 34063 ft | 414 kts | 256° |
| 2026-05-04 00:52 | 35.71806 | -89.26798 | 34065 ft | 415 kts | 256° |
| 2026-05-04 00:52 | 35.69804 | -89.33477 | 34062 ft | 416 kts | 256° |
| 2026-05-04 00:53 | 35.67803 | -89.40133 | 34062 ft | 417 kts | 256° |
| 2026-05-04 00:53 | 35.65782 | -89.46839 | 34059 ft | 418 kts | 256° |
| 2026-05-04 00:54 | 35.63755 | -89.53549 | 34055 ft | 419 kts | 256° |
| 2026-05-04 00:54 | 35.61726 | -89.60253 | 34061 ft | 419 kts | 256° |
| 2026-05-04 00:55 | 35.59701 | -89.66924 | 34059 ft | 418 kts | 256° |
| 2026-05-04 00:55 | 35.57664 | -89.73622 | 34058 ft | 418 kts | 256° |
| 2026-05-04 00:56 | 35.55623 | -89.80316 | 34061 ft | 418 kts | 256° |
| 2026-05-04 00:56 | 35.53579 | -89.87004 | 34060 ft | 417 kts | 256° |
| 2026-05-04 00:57 | 35.51537 | -89.93673 | 34056 ft | 417 kts | 256° |
| 2026-05-04 00:57 | 35.49506 | -90.00289 | 34060 ft | 416 kts | 256° |
| 2026-05-04 00:58 | 35.47459 | -90.06942 | 34056 ft | 416 kts | 256° |
| 2026-05-04 00:58 | 35.45414 | -90.13575 | 34054 ft | 416 kts | 256° |
| 2026-05-04 00:59 | 35.43364 | -90.20208 | 34050 ft | 416 kts | 255° |
| 2026-05-04 00:59 | 35.41307 | -90.26846 | 34043 ft | 416 kts | 255° |
| 2026-05-04 01:00 | 35.39251 | -90.33469 | 34043 ft | 416 kts | 255° |
| 2026-05-04 01:00 | 35.37189 | -90.40096 | 34045 ft | 416 kts | 255° |
| 2026-05-04 01:01 | 35.35121 | -90.46727 | 34047 ft | 416 kts | 255° |
| 2026-05-04 01:01 | 35.33064 | -90.53308 | 34049 ft | 417 kts | 255° |
| 2026-05-04 01:02 | 35.30987 | -90.59935 | 34047 ft | 417 kts | 255° |
| 2026-05-04 01:02 | 35.29243 | -90.65489 | 34044 ft | 417 kts | 255° |
| 2026-05-04 01:03 | 35.27157 | -90.72121 | 34044 ft | 417 kts | 255° |
| 2026-05-04 01:03 | 35.25068 | -90.78746 | 34053 ft | 417 kts | 255° |
| 2026-05-04 01:04 | 35.22972 | -90.85378 | 34036 ft | 418 kts | 255° |
| 2026-05-04 01:04 | 35.20888 | -90.91958 | 34043 ft | 418 kts | 255° |
| 2026-05-04 01:05 | 35.18787 | -90.98578 | 34039 ft | 417 kts | 255° |
| 2026-05-04 01:05 | 35.16680 | -91.05198 | 34045 ft | 417 kts | 255° |
| 2026-05-04 01:06 | 35.14572 | -91.11812 | 34057 ft | 417 kts | 254° |
| 2026-05-04 01:06 | 35.12458 | -91.18426 | 34058 ft | 417 kts | 254° |
| 2026-05-04 01:07 | 35.10344 | -91.25028 | 34062 ft | 417 kts | 254° |
| 2026-05-04 01:07 | 35.08225 | -91.31631 | 34065 ft | 417 kts | 254° |
| 2026-05-04 01:08 | 35.06103 | -91.38226 | 34058 ft | 417 kts | 254° |
| 2026-05-04 01:08 | 35.03976 | -91.44824 | 34055 ft | 417 kts | 254° |
| 2026-05-04 01:09 | 35.01860 | -91.51374 | 34048 ft | 418 kts | 254° |
| 2026-05-04 01:09 | 34.99725 | -91.57968 | 34044 ft | 418 kts | 254° |
| 2026-05-04 01:10 | 34.97585 | -91.64562 | 34049 ft | 418 kts | 254° |
| 2026-05-04 01:10 | 34.95442 | -91.71153 | 34047 ft | 418 kts | 254° |
| 2026-05-04 01:11 | 34.93296 | -91.77734 | 34048 ft | 418 kts | 253° |
| 2026-05-04 01:11 | 34.91148 | -91.84312 | 34032 ft | 418 kts | 253° |
| 2026-05-04 01:12 | 34.88998 | -91.90880 | 34031 ft | 418 kts | 253° |
| 2026-05-04 01:12 | 34.86841 | -91.97456 | 34026 ft | 418 kts | 253° |
| 2026-05-04 01:13 | 34.84683 | -92.04023 | 34025 ft | 417 kts | 253° |
| 2026-05-04 01:13 | 34.82534 | -92.10550 | 34024 ft | 417 kts | 253° |
| 2026-05-04 01:14 | 34.80295 | -92.17087 | 34031 ft | 419 kts | 251° |
| 2026-05-04 01:14 | 34.77728 | -92.23475 | 34030 ft | 421 kts | 249° |
| 2026-05-04 01:15 | 34.75102 | -92.29837 | 34033 ft | 421 kts | 249° |
| 2026-05-04 01:15 | 34.72492 | -92.36201 | 34036 ft | 421 kts | 249° |
| 2026-05-04 01:16 | 34.69890 | -92.42578 | 34043 ft | 421 kts | 249° |
| 2026-05-04 01:16 | 34.67289 | -92.48960 | 34043 ft | 421 kts | 249° |
| 2026-05-04 01:17 | 34.64687 | -92.55331 | 34043 ft | 421 kts | 249° |
| 2026-05-04 01:17 | 34.62079 | -92.61707 | 34043 ft | 422 kts | 249° |
| 2026-05-04 01:18 | 34.59477 | -92.68056 | 34043 ft | 422 kts | 249° |
| 2026-05-04 01:18 | 34.56859 | -92.74431 | 34046 ft | 422 kts | 249° |
| 2026-05-04 01:19 | 34.54241 | -92.80791 | 34048 ft | 421 kts | 249° |
| 2026-05-04 01:19 | 34.51621 | -92.87147 | 34052 ft | 422 kts | 249° |
| 2026-05-04 01:20 | 34.48995 | -92.93507 | 34045 ft | 421 kts | 249° |
| 2026-05-04 01:20 | 34.46367 | -92.99856 | 34049 ft | 421 kts | 249° |
| 2026-05-04 01:21 | 34.43737 | -93.06200 | 34050 ft | 421 kts | 249° |
| 2026-05-04 01:21 | 34.41107 | -93.12533 | 34055 ft | 420 kts | 249° |
| 2026-05-04 01:22 | 34.38494 | -93.18811 | 34050 ft | 420 kts | 249° |
| 2026-05-04 01:22 | 34.35861 | -93.25128 | 34053 ft | 420 kts | 249° |
| 2026-05-04 01:23 | 34.33227 | -93.31433 | 34044 ft | 419 kts | 249° |
| 2026-05-04 01:23 | 34.30590 | -93.37736 | 34046 ft | 419 kts | 249° |
| 2026-05-04 01:24 | 34.27952 | -93.44028 | 34040 ft | 419 kts | 249° |
| 2026-05-04 01:24 | 34.25312 | -93.50316 | 34042 ft | 419 kts | 249° |
| 2026-05-04 01:25 | 34.22689 | -93.56550 | 34040 ft | 419 kts | 249° |
| 2026-05-04 01:25 | 34.20044 | -93.62825 | 34047 ft | 418 kts | 249° |
| 2026-05-04 01:26 | 34.17401 | -93.69087 | 34033 ft | 418 kts | 249° |
| 2026-05-04 01:26 | 34.14758 | -93.75335 | 34041 ft | 418 kts | 249° |
| 2026-05-04 01:27 | 34.12310 | -93.81677 | 34046 ft | 414 kts | 253° |
| 2026-05-04 01:27 | 34.10240 | -93.88136 | 34038 ft | 413 kts | 255° |
| 2026-05-04 01:28 | 34.08190 | -93.94601 | 34044 ft | 413 kts | 255° |
| 2026-05-04 01:28 | 34.06097 | -94.01051 | 34036 ft | 412 kts | 254° |
| 2026-05-04 01:29 | 34.03982 | -94.07481 | 34030 ft | 412 kts | 254° |
| 2026-05-04 01:29 | 34.01875 | -94.13857 | 34030 ft | 412 kts | 254° |
| 2026-05-04 01:30 | 33.99753 | -94.20266 | 34026 ft | 411 kts | 254° |
| 2026-05-04 01:30 | 33.97631 | -94.26661 | 34020 ft | 411 kts | 255° |
| 2026-05-04 01:31 | 33.95509 | -94.33045 | 34025 ft | 410 kts | 255° |
| 2026-05-04 01:31 | 33.93386 | -94.39417 | 34023 ft | 409 kts | 255° |
| 2026-05-04 01:32 | 33.91264 | -94.45774 | 34028 ft | 409 kts | 255° |
| 2026-05-04 01:32 | 33.89141 | -94.52123 | 34028 ft | 408 kts | 255° |
| 2026-05-04 01:33 | 33.87019 | -94.58456 | 34028 ft | 407 kts | 255° |
| 2026-05-04 01:33 | 33.84915 | -94.64717 | 34027 ft | 401 kts | 255° |
| 2026-05-04 01:34 | 33.82866 | -94.70791 | 34033 ft | 385 kts | 255° |
| 2026-05-04 01:34 | 33.81876 | -94.73720 | 34025 ft | 370 kts | 256° |
| 2026-05-04 01:34 | 33.80923 | -94.76538 | 34028 ft | 356 kts | 256° |
| 2026-05-04 01:34 | 33.80010 | -94.79246 | 34029 ft | 342 kts | 256° |
| 2026-05-04 01:35 | 33.79133 | -94.81848 | 33990 ft | 331 kts | 257° |
| 2026-05-04 01:35 | 33.78276 | -94.84390 | 33716 ft | 325 kts | 257° |
| 2026-05-04 01:35 | 33.77427 | -94.86907 | 33282 ft | 325 kts | 256° |
| 2026-05-04 01:35 | 33.76580 | -94.89421 | 32402 ft | 335 kts | 256° |
| 2026-05-04 01:36 | 33.75669 | -94.92118 | 31006 ft | 362 kts | 255° |
| 2026-05-04 01:36 | 33.74692 | -94.94976 | 30249 ft | 371 kts | 253° |
| 2026-05-04 01:36 | 33.73704 | -94.97825 | 29730 ft | 369 kts | 253° |
| 2026-05-04 01:36 | 33.72719 | -95.00657 | 29320 ft | 365 kts | 253° |
| 2026-05-04 01:37 | 33.71746 | -95.03459 | 28894 ft | 361 kts | 253° |
| 2026-05-04 01:37 | 33.70787 | -95.06229 | 28464 ft | 357 kts | 253° |
| 2026-05-04 01:37 | 33.69848 | -95.08942 | 28078 ft | 354 kts | 253° |
| 2026-05-04 01:37 | 33.68906 | -95.11665 | 27663 ft | 351 kts | 253° |
| 2026-05-04 01:38 | 33.67976 | -95.14356 | 27266 ft | 348 kts | 253° |
| 2026-05-04 01:38 | 33.67053 | -95.17026 | 26873 ft | 345 kts | 253° |
| 2026-05-04 01:38 | 33.66133 | -95.19683 | 26481 ft | 343 kts | 253° |
| 2026-05-04 01:38 | 33.65221 | -95.22315 | 26094 ft | 341 kts | 252° |
| 2026-05-04 01:39 | 33.64314 | -95.24933 | 25712 ft | 339 kts | 252° |
| 2026-05-04 01:39 | 33.63412 | -95.27535 | 25328 ft | 337 kts | 252° |
| 2026-05-04 01:39 | 33.62513 | -95.30124 | 24950 ft | 336 kts | 252° |
| 2026-05-04 01:39 | 33.61616 | -95.32705 | 24563 ft | 334 kts | 252° |
| 2026-05-04 01:40 | 33.60721 | -95.35274 | 24190 ft | 334 kts | 252° |
| 2026-05-04 01:40 | 33.59828 | -95.37838 | 24011 ft | 335 kts | 252° |
| 2026-05-04 01:40 | 33.58909 | -95.40483 | 23439 ft | 347 kts | 251° |
| 2026-05-04 01:40 | 33.57971 | -95.43176 | 22903 ft | 351 kts | 251° |
| 2026-05-04 01:41 | 33.57052 | -95.45838 | 22485 ft | 349 kts | 251° |
| 2026-05-04 01:41 | 33.56130 | -95.48520 | 22075 ft | 348 kts | 251° |
| 2026-05-04 01:41 | 33.55211 | -95.51197 | 21667 ft | 346 kts | 251° |
| 2026-05-04 01:41 | 33.54295 | -95.53865 | 21267 ft | 345 kts | 251° |
| 2026-05-04 01:42 | 33.53380 | -95.56523 | 20858 ft | 344 kts | 250° |
| 2026-05-04 01:42 | 33.52467 | -95.59175 | 20472 ft | 344 kts | 250° |
| 2026-05-04 01:42 | 33.51555 | -95.61824 | 20080 ft | 344 kts | 250° |
| 2026-05-04 01:42 | 33.50641 | -95.64473 | 19683 ft | 344 kts | 250° |
| 2026-05-04 01:43 | 33.49724 | -95.67126 | 19295 ft | 344 kts | 250° |
| 2026-05-04 01:43 | 33.48809 | -95.69769 | 18892 ft | 342 kts | 249° |
| 2026-05-04 01:43 | 33.47903 | -95.72363 | 18498 ft | 341 kts | 249° |
| 2026-05-04 01:43 | 33.46987 | -95.74976 | 18065 ft | 340 kts | 249° |
| 2026-05-04 01:44 | 33.46070 | -95.77582 | 17637 ft | 338 kts | 249° |
| 2026-05-04 01:44 | 33.45161 | -95.80169 | 17244 ft | 336 kts | 249° |
| 2026-05-04 01:44 | 33.44258 | -95.82737 | 16835 ft | 334 kts | 249° |
| 2026-05-04 01:44 | 33.43359 | -95.85291 | 16451 ft | 331 kts | 248° |
| 2026-05-04 01:45 | 33.42468 | -95.87823 | 16065 ft | 329 kts | 248° |
| 2026-05-04 01:45 | 33.41582 | -95.90341 | 15685 ft | 327 kts | 248° |
| 2026-05-04 01:45 | 33.39823 | -95.95331 | 14932 ft | 323 kts | 248° |
| 2026-05-04 01:46 | 33.38963 | -95.97770 | 14574 ft | 322 kts | 248° |
| 2026-05-04 01:46 | 33.38094 | -96.00232 | 14198 ft | 320 kts | 247° |
| 2026-05-04 01:46 | 33.37229 | -96.02679 | 13830 ft | 319 kts | 247° |
| 2026-05-04 01:46 | 33.36367 | -96.05116 | 13417 ft | 318 kts | 247° |
| 2026-05-04 01:47 | 33.35507 | -96.07548 | 13025 ft | 316 kts | 247° |
| 2026-05-04 01:47 | 33.34652 | -96.09964 | 12652 ft | 314 kts | 247° |
| 2026-05-04 01:47 | 33.33803 | -96.12359 | 12281 ft | 312 kts | 246° |
| 2026-05-04 01:47 | 33.32958 | -96.14740 | 11919 ft | 310 kts | 246° |
| 2026-05-04 01:48 | 33.32116 | -96.17109 | 11555 ft | 308 kts | 246° |
| 2026-05-04 01:48 | 33.31561 | -96.18672 | 11323 ft | 307 kts | 246° |
| 2026-05-04 01:48 | 33.30728 | -96.21015 | 10968 ft | 306 kts | 246° |
| 2026-05-04 01:48 | 33.29897 | -96.23351 | 10619 ft | 304 kts | 246° |
| 2026-05-04 01:49 | 33.29070 | -96.25677 | 10264 ft | 303 kts | 246° |
| 2026-05-04 01:49 | 33.28248 | -96.27985 | 9986 ft | 300 kts | 246° |
| 2026-05-04 01:49 | 33.27451 | -96.30222 | 9988 ft | 285 kts | 246° |
| 2026-05-04 01:49 | 33.26689 | -96.32359 | 9929 ft | 274 kts | 245° |
| 2026-05-04 01:50 | 33.25810 | -96.34348 | 9689 ft | 269 kts | 234° |
| 2026-05-04 01:50 | 33.24676 | -96.36129 | 9345 ft | 269 kts | 230° |
| 2026-05-04 01:50 | 33.23497 | -96.37859 | 9075 ft | 267 kts | 230° |
| 2026-05-04 01:50 | 33.22344 | -96.39564 | 8910 ft | 260 kts | 230° |
| 2026-05-04 01:51 | 33.21258 | -96.41202 | 8835 ft | 241 kts | 231° |
| 2026-05-04 01:51 | 33.20300 | -96.42662 | 8930 ft | 217 kts | 231° |
| 2026-05-04 01:51 | 33.19400 | -96.44040 | 8799 ft | 203 kts | 231° |
| 2026-05-04 01:51 | 33.18564 | -96.45322 | 8688 ft | 188 kts | 231° |
| 2026-05-04 01:52 | 33.17770 | -96.46540 | 8407 ft | 184 kts | 231° |
| 2026-05-04 01:52 | 33.17024 | -96.47774 | 8068 ft | 183 kts | 233° |
| 2026-05-04 01:52 | 33.16300 | -96.49011 | 7751 ft | 180 kts | 233° |
| 2026-05-04 01:52 | 33.15590 | -96.50228 | 7536 ft | 175 kts | 233° |
| 2026-05-04 01:53 | 33.14892 | -96.51421 | 7396 ft | 175 kts | 233° |
| 2026-05-04 01:53 | 33.14186 | -96.52626 | 7296 ft | 179 kts | 233° |
| 2026-05-04 01:53 | 33.13468 | -96.53853 | 7177 ft | 180 kts | 233° |
| 2026-05-04 01:53 | 33.12764 | -96.55053 | 7057 ft | 178 kts | 233° |
| 2026-05-04 01:54 | 33.12057 | -96.56258 | 6942 ft | 177 kts | 233° |
| 2026-05-04 01:54 | 33.11353 | -96.57457 | 6834 ft | 175 kts | 233° |
| 2026-05-04 01:54 | 33.10656 | -96.58645 | 6729 ft | 175 kts | 233° |
| 2026-05-04 01:54 | 33.09961 | -96.59827 | 6619 ft | 173 kts | 233° |
| 2026-05-04 01:55 | 33.09270 | -96.61001 | 6513 ft | 172 kts | 233° |
| 2026-05-04 01:55 | 33.08582 | -96.62169 | 6405 ft | 171 kts | 233° |
| 2026-05-04 01:55 | 33.07901 | -96.63326 | 6298 ft | 170 kts | 233° |
| 2026-05-04 01:55 | 33.07220 | -96.64482 | 6196 ft | 170 kts | 233° |
| 2026-05-04 01:56 | 33.06531 | -96.65631 | 6086 ft | 170 kts | 231° |
| 2026-05-04 01:56 | 33.05813 | -96.66757 | 5982 ft | 170 kts | 231° |
| 2026-05-04 01:56 | 33.05091 | -96.67877 | 5881 ft | 171 kts | 230° |
| 2026-05-04 01:56 | 33.04367 | -96.68992 | 5793 ft | 168 kts | 230° |
| 2026-05-04 01:57 | 33.03661 | -96.70076 | 5695 ft | 164 kts | 230° |
| 2026-05-04 01:57 | 33.02972 | -96.71107 | 5626 ft | 155 kts | 228° |
| 2026-05-04 01:57 | 33.02301 | -96.72082 | 5504 ft | 152 kts | 228° |
| 2026-05-04 01:57 | 33.01596 | -96.73125 | 5461 ft | 165 kts | 229° |
| 2026-05-04 01:58 | 33.00891 | -96.74180 | 5351 ft | 163 kts | 228° |
| 2026-05-04 01:58 | 33.00171 | -96.75218 | 5274 ft | 162 kts | 227° |
| 2026-05-04 01:58 | 32.99478 | -96.76219 | 5192 ft | 153 kts | 227° |
| 2026-05-04 01:58 | 32.98799 | -96.77166 | 5101 ft | 148 kts | 225° |
| 2026-05-04 01:59 | 32.98119 | -96.78096 | 5029 ft | 149 kts | 227° |
| 2026-05-04 01:59 | 32.97454 | -96.79052 | 4964 ft | 150 kts | 227° |
| 2026-05-04 01:59 | 32.96958 | -96.80124 | 4802 ft | 154 kts | 261° |
| 2026-05-04 01:59 | 32.97173 | -96.81387 | 4426 ft | 157 kts | 277° |
| 2026-05-04 02:00 | 32.97421 | -96.82654 | 4094 ft | 152 kts | 275° |
| 2026-05-04 02:00 | 32.97649 | -96.83885 | 4028 ft | 155 kts | 275° |
| 2026-05-04 02:00 | 32.97880 | -96.85150 | 3916 ft | 158 kts | 275° |
| 2026-05-04 02:00 | 32.98110 | -96.86415 | 3798 ft | 158 kts | 274° |
| 2026-05-04 02:01 | 32.98340 | -96.87695 | 3682 ft | 158 kts | 274° |
| 2026-05-04 02:01 | 32.98570 | -96.88972 | 3574 ft | 158 kts | 274° |
| 2026-05-04 02:01 | 32.98800 | -96.90259 | 3478 ft | 159 kts | 274° |
| 2026-05-04 02:01 | 32.99030 | -96.91545 | 3369 ft | 157 kts | 274° |
| 2026-05-04 02:02 | 32.99257 | -96.92816 | 3254 ft | 156 kts | 274° |
| 2026-05-04 02:02 | 32.99395 | -96.94086 | 3120 ft | 152 kts | 255° |
| 2026-05-04 02:02 | 32.99111 | -96.95257 | 3052 ft | 145 kts | 239° |
| 2026-05-04 02:02 | 32.98548 | -96.96205 | 2935 ft | 138 kts | 219° |
| 2026-05-04 02:03 | 32.97764 | -96.96823 | 2830 ft | 135 kts | 201° |
| 2026-05-04 02:03 | 32.96840 | -96.97061 | 2740 ft | 138 kts | 183° |
| 2026-05-04 02:03 | 32.95916 | -96.96804 | 2631 ft | 143 kts | 154° |
| 2026-05-04 02:03 | 32.95083 | -96.96130 | 2537 ft | 144 kts | 150° |
| 2026-05-04 02:04 | 32.94306 | -96.95424 | 2423 ft | 140 kts | 150° |
| 2026-05-04 02:04 | 32.93536 | -96.94699 | 2330 ft | 142 kts | 146° |
| 2026-05-04 02:04 | 32.92797 | -96.93907 | 2229 ft | 144 kts | 144° |
| 2026-05-04 02:04 | 32.92075 | -96.93083 | 2130 ft | 144 kts | 143° |
| 2026-05-04 02:05 | 32.91354 | -96.92247 | 2041 ft | 144 kts | 142° |
| 2026-05-04 02:05 | 32.90635 | -96.91409 | 1875 ft | 145 kts | 142° |
| 2026-05-04 02:05 | 32.89918 | -96.90575 | 1694 ft | 144 kts | 142° |
| 2026-05-04 02:05 | 32.89208 | -96.89747 | 1527 ft | 143 kts | 141° |
| 2026-05-04 02:06 | 32.88479 | -96.88900 | 1326 ft | 150 kts | 139° |
| 2026-05-04 02:06 | 32.87744 | -96.88017 | 1125 ft | 150 kts | 136° |
| 2026-05-04 02:06 | 32.87075 | -96.87185 | 963 ft | 146 kts | 139° |
| 2026-05-04 02:06 | 32.86332 | -96.86402 | 850 ft | 143 kts | 136° |
| 2026-05-04 02:07 | 32.85679 | -96.85593 | 556 ft | 127 kts | 135° |
| 2026-05-04 02:07 | 32.85118 | -96.84941 | 493 ft | 98 kts | 136° |
| 2026-05-04 02:07 | 32.84783 | -96.84585 | 492 ft | 47 kts | 137° |
| 2026-05-04 02:07 | 32.84566 | -96.84341 | 493 ft | 39 kts | 134° |
| 2026-05-04 02:08 | 32.84492 | -96.84258 | 495 ft | 0 kts | 155° |
| 2026-05-04 02:08 | 32.84485 | -96.84259 | 498 ft | 2 kts | 187° |
| 2026-05-04 02:08 | 32.84467 | -96.84288 | 495 ft | 9 kts | 239° |
| 2026-05-04 02:08 | 32.84416 | -96.84390 | 488 ft | 19 kts | 229° |
| 2026-05-04 02:09 | 32.84403 | -96.84448 | 494 ft | 7 kts | 290° |
| 2026-05-04 02:09 | 32.84434 | -96.84495 | 496 ft | 7 kts | 314° |
| 2026-05-04 02:09 | 32.84470 | -96.84538 | 490 ft | 7 kts | 316° |
| 2026-05-04 02:09 | 32.84523 | -96.84566 | 492 ft | 9 kts | 324° |
| 2026-05-04 02:10 | 32.84537 | -96.84606 | 490 ft | 6 kts | 257° |
| 2026-05-04 02:10 | 32.84509 | -96.84703 | 492 ft | 18 kts | 262° |
| 2026-05-04 02:10 | 32.84521 | -96.84819 | 483 ft | 7 kts | 318° |
| 2026-05-04 02:10 | 32.84553 | -96.84828 | 485 ft | 0 kts | 6° |